NCAR-RAP Real-Time Weather Data

Output produced by METARs form (23 January 2018  15:40 UTC)
found at http://weather.rap.ucar.edu/surface/
 
RJSS 231200Z 30020KT 9999 FEW015 00/M05 Q1005
RJSS 231100Z 31016KT 9999 FEW010 BKN040 00/M01 Q1004
RJSS 231000Z 28012KT 9999 -SHSN FEW005 SCT015 BKN025 01/00 Q1004
RJSS 230900Z 27007KT 6000 -SHSN FEW005 SCT010 BKN015 01/01 Q1003
RJSS 230800Z 26010KT 9999 VCSH FEW007 SCT030 BKN050 02/01 Q1002
RJSS 230700Z 25011KT 9999 -SHRASN FEW007 SCT020 BKN040 02/01 Q1001
RJSS 230646Z 27012KT 7000 -SHSNRA FEW007 SCT015 BKN040 02/01 Q1001 RMK 1ST007 4CU015 6CU040 A2957
RJSS 230634Z 27012KT 4500 -SHSNRA FEW007 SCT010 BKN015 02/01 Q1001 RMK 1ST007 3ST010 6CU015 A2957
RJSS 230603Z 26019G29KT 9999 -SHRASN FEW010 SCT020 BKN040 03/01 Q1000 RMK 1ST010 3CU020 6CU040 A2955
RJSS 230600Z 26020KT 240V300 9999 -SHRASN FEW010 SCT020 BKN040 03/01 Q1000
RJSS 230507Z 23015G25KT 9999 -SHRASN FEW010 SCT030 BKN050 04/01 Q0999 RMK 1ST010 3CU030 5CU050 A2951
RJSS 230500Z 24009KT 9999 -SHRASN FEW010 SCT030 BKN050 04/01 Q0999
RJSS 230400Z 25007KT 220V280 9999 VCSH FEW015 SCT040 BKN100 04/00 Q1000
RJSS 230300Z 24006KT 180V270 9999 FEW015 SCT080 BKN100 02/M00 Q1000
RJSS 230200Z 23007KT 9999 FEW010 SCT100 BKN150 02/M01 Q1002
RJSS 230100Z 23009KT 9999 FEW010 SCT130 BKN/// 01/00 Q1003
RJSS 230000Z 22006KT 9999 FEW003 BKN130 M01/M01 Q1004
RJSS 222332Z VRB02KT 5000 R27/P2000N PRFG BR FEW001 BKN050 M02/M02 Q1005 RMK 1ST001 5SC050 A2968 1200NE
RJSS 222318Z VRB01KT 1200 R27/1500VP2000U BCFG BR FEW001 BKN050 M03/M03 Q1005 RMK 1ST001 5SC050 A2968
RJSS 222300Z VRB01KT 0900 R27/1100VP2000D FZFG FEW001 SCT050 M04/M04 Q1005
RJSS 222247Z 20002KT 0500 R27/0400V1700D FZFG FEW001 SCT050 M05/M05 Q1005 RMK 2ST001 3SC050 A2969
RJSS 222238Z VRB01KT 0700 R27/0400VP2000U FZFG FEW001 SCT050 M04/M04 Q1005 RMK 2ST001 3SC050 A2969
RJSS 222234Z VRB01KT 0700 R27/0225VP2000U FZFG FEW001 SCT050 M05/M05 Q1005 RMK 2ST001 3SC050 A2969
RJSS 222200Z VRB01KT 0500 R27/0175V0300N FZFG FEW001 SCT050 M05/M05 Q1005
RJSS 222144Z VRB01KT 0700 R27/0400V0900N FZFG FEW001 SCT050 M03/M03 Q1005 RMK 1ST001 4SC050 A2969 9999SW-NW
RJSS 222100Z VRB01KT 9999 -SN FEW010 SCT030 BKN050 M02/M02 Q1005
RJSS 222030Z VRB01KT 9999 -SN FEW010 BKN030 M01/M01 Q1005 RMK 1ST010 7SC030 A2970
RJSS 221200Z 34008KT 1200 R27/P2000N -SN BR FEW003 BKN007 BKN010 M02/M02 Q1014
RJSS 221124Z 35011KT 1000 R27/P2000N -SN BR FEW003 BKN007 BKN010 M02/M02 Q1014 RMK 1ST003 5ST007 7ST010 A2996
RJSS 221100Z 35010KT 1500 R27/P2000N -SN BR FEW003 BKN008 BKN012 M02/M02 Q1015
RJSS 221039Z 35008KT 1200 R27/P2000N -SN BR FEW003 BKN008 BKN012 M02/M02 Q1015 RMK 1ST003 5ST008 7ST012 A2999
RJSS 221000Z 34006KT 1000 R27/P2000N -SN BR FEW003 BKN007 BKN010 M02/M02 Q1016
RJSS 220900Z 29007KT 1200 R27/P2000N -SN BR FEW003 BKN008 BKN012 M02/M02 Q1017
RJSS 220831Z 28005KT 1500 R27/P2000N -SN BR FEW005 BKN012 BKN020 M02/M02 Q1017 RMK 1ST005 5ST012 7SC020 A3006
RJSS 220800Z 25005KT 2000 -SN BR FEW008 BKN015 BKN030 M02/M03 Q1018
RJSS 220747Z 23003KT 180V260 2000 -SN BR FEW008 BKN015 BKN030 M02/M04 Q1018 RMK 1ST008 5SC015 7SC030 A3007
RJSS 220728Z 24004KT 180V290 3000 -SN FEW008 SCT020 BKN030 M00/M08 Q1018 RMK 1ST008 4SC020 7SC030 A3007
RJSS 220716Z 22005KT 120V260 4500 -SN FEW010 SCT030 BKN040 M00/M10 Q1018 RMK 1ST010 3SC030 7SC040 A3007
RJSS 220700Z 26003KT 9999 FEW010 SCT040 BKN050 00/M11 Q1018
RJSS 220600Z VRB01KT 9999 FEW020 BKN080 BKN100 00/M12 Q1018
RJSS 220500Z 32005KT 290V360 9999 FEW030 SCT080 BKN100 01/M11 Q1019
RJSS 220400Z 32007KT 9999 FEW030 BKN100 BKN/// 00/M12 Q1019
RJSS 220300Z 02007KT 9999 FEW030 SCT080 BKN120 00/M11 Q1021
RJSS 220200Z 02006KT 9999 FEW020 SCT090 BKN120 00/M11 Q1023
RJSS 220100Z 02005KT 9999 FEW020 SCT120 BKN/// 00/M10 Q1024
RJSS 220000Z 04009KT 9999 FEW020 BKN140 BKN/// M00/M09 Q1024
RJSS 212300Z 03005KT 9999 FEW020 BKN160 BKN/// M01/M09 Q1024
RJSS 212200Z 33007KT 9999 FEW020 SCT170 BKN/// M01/M09 Q1023
RJSS 212100Z 36008KT 340V040 9999 FEW050 BKN/// M01/M09 Q1022
RJSS 212030Z 06007KT 9999 FEW040 BKN/// M01/M09 Q1021 RMK 1SC040 A3016
RJSS 211200Z 32013KT 9999 FEW030 01/M08 Q1020
RJSS 211106Z 32010KT 9999 FEW040 01/M07 Q1019 RMK 1CU040 A3011
RJSS 211100Z 04005KT 340V110 9999 FEW040 00/M08 Q1019
RJSS 211049Z 03005KT 320V090 9999 FEW040 00/M08 Q1019 RMK 2CU040 A3011
RJSS 211000Z 33011KT 9999 FEW060 01/M08 Q1019
RJSS 210900Z 32010KT 9999 FEW020 BKN050 02/M06 Q1018
RJSS 210800Z 31015KT 9999 FEW020 BKN050 BKN060 03/M05 Q1017
RJSS 210700Z 33011KT 9999 FEW020 SCT040 BKN050 03/02 Q1015
RJSS 210600Z 36009KT 9999 FEW015 BKN050 05/M03 Q1014
RJSS 210500Z 03006KT 9999 FEW020 SCT050 BKN060 06/M04 Q1013
RJSS 210400Z 03006KT 9999 FEW015 BKN050 BKN060 05/M04 Q1013